CDT,Max TemperatureF,Mean TemperatureF,Min TemperatureF,Max Dew PointF,MeanDew PointF,Min DewpointF,Max Humidity, Mean Humidity, Min Humidity, Max Sea Level PressureIn, Mean Sea Level PressureIn, Min Sea Level PressureIn, Max VisibilityMiles, Mean VisibilityMiles, Min VisibilityMiles, Max Wind SpeedMPH, Mean Wind SpeedMPH, Max Gust SpeedMPH,PrecipitationIn, CloudCover, Events, WindDirDegrees
2013-9-1,71,62,54,64,60,53,95,83,63,29.92,29.80,29.73,10,10,3,12,6,24,0.00,6,Rain-Thunderstorm,280
2013-9-2,58,50,41,52,48,40,99,87,70,30.05,30.01,29.93,10,8,2,13,9,21,0.00,7,Rain,338
2013-9-3,72,52,34,56,47,35,100,77,43,30.08,30.03,29.97,10,7,0,10,2,,0.00,1,Fog,257
2013-9-4,68,54,40,57,50,40,99,74,43,30.22,30.12,29.99,10,10,2,12,6,16,0.00,3,,341
2013-9-5,71,53,35,54,44,35,100,75,38,30.33,30.26,30.21,10,9,0,7,1,,0.00,0,Fog,230
2013-9-6,78,64,51,68,60,49,97,82,65,30.21,30.07,29.95,10,10,10,9,4,,0.00,4,Rain,207
2013-9-7,81,66,52,68,61,49,99,83,60,30.15,30.00,29.92,10,9,2,15,4,20,0.00,3,,8
2013-9-8,70,54,38,56,48,39,100,76,46,30.19,30.11,30.01,10,9,1,9,3,16,0.00,1,Rain,131
2013-9-9,73,64,56,70,63,53,99,94,87,30.01,29.85,29.72,10,5,1,8,2,,0.00,7,Rain-Thunderstorm,150
2013-9-10,76,68,61,70,65,61,100,88,66,29.96,29.88,29.75,10,7,0,10,3,17,0.00,5,Fog-Rain,246
2013-9-11,77,63,49,63,57,49,100,80,50,30.03,29.99,29.95,10,9,0,15,3,24,0.00,3,Fog-Rain,274
2013-9-12,60,53,47,54,48,42,95,79,53,30.21,30.12,30.01,10,10,10,17,7,25,0.00,6,,342
2013-9-13,60,46,32,47,40,32,100,80,49,30.27,30.21,30.12,10,8,0,12,2,16,0.00,2,Fog,3
2013-9-14,67,49,32,53,44,32,100,80,46,30.13,30.04,29.97,10,9,0,12,2,18,0.00,1,Fog-Rain,227
2013-9-15,55,43,31,54,47,31,100,93,78,30.32,30.13,29.98,10,8,0,13,3,20,0.00,7,Fog-Rain,4
2013-9-16,61,44,27,44,34,27,100,77,32,30.44,30.38,30.32,10,9,1,7,1,,0.20,0,,85
2013-9-17,66,48,31,50,41,31,100,74,41,30.35,30.23,30.07,10,9,0,13,4,21,0.00,1,Fog,181
2013-9-18,65,60,55,63,58,51,99,93,82,30.07,29.95,29.87,10,5,1,9,6,,0.00,8,Rain,183
2013-9-19,79,70,63,69,65,62,100,92,68,29.87,29.79,29.71,10,7,0,13,3,20,0.14,6,Fog-Rain-Thunderstorm,182
2013-9-20,69,57,47,64,56,46,99,88,55,29.82,29.74,29.69,10,9,2,14,4,23,0.07,7,Rain,290
2013-9-21,49,40,30,47,40,31,100,86,67,29.99,29.90,29.81,10,8,2,13,6,18,0.02,6,Rain,326
2013-9-22,58,45,32,43,39,33,100,77,48,30.10,30.05,29.99,10,10,10,7,2,,0.00,4,,128
2013-9-23,66,51,36,48,43,36,100,79,49,30.13,30.08,30.05,10,10,10,12,4,17,0.00,0,,165
2013-9-24,70,53,36,56,46,36,100,84,37,30.11,30.05,30.01,10,6,0,6,2,,0.00,3,Fog,166
2013-9-25,71,54,39,58,45,39,100,84,40,30.06,30.03,29.99,10,5,0,7,1,,0.00,4,Fog,118
2013-9-26,72,53,35,56,46,35,100,77,39,30.10,30.07,30.04,10,7,0,12,3,18,0.00,2,Fog,165
2013-9-27,78,64,50,52,49,46,95,62,33,30.12,30.08,30.01,10,10,10,16,6,24,0.00,0,,173
2013-9-28,74,62,50,61,51,45,94,70,52,30.03,29.88,29.72,10,10,2,21,10,32,0.26,3,Rain,192
2013-9-29,67,51,35,48,42,36,100,73,33,30.00,29.95,29.89,10,9,0,10,4,17,0.02,1,Fog,230
2013-9-30,71,54,39,46,43,39,99,61,33,29.94,29.81,29.73,10,10,10,17,5,31,0.00,0,,195